createdAt,value
2023-05-03T00:00:19.612Z,60.73
2023-05-03T00:01:21.396Z,60.99
2023-05-03T00:02:23.052Z,60.67
2023-05-03T00:03:25.566Z,60.45
2023-05-03T00:04:27.152Z,59.85
2023-05-03T00:05:28.791Z,59.58
2023-05-03T00:06:31.497Z,59.13
2023-05-03T00:07:33.173Z,59.29
2023-05-03T00:08:34.743Z,58.77
2023-05-03T00:09:36.321Z,58.64
2023-05-03T00:10:37.850Z,59.92
2023-05-03T00:11:39.430Z,60.71
2023-05-03T00:12:41.172Z,61.44
2023-05-03T00:13:43.397Z,61.00
2023-05-03T00:14:45.999Z,60.92
2023-05-03T00:15:47.642Z,60.95
2023-05-03T00:16:49.242Z,61.50
2023-05-03T00:17:51.506Z,61.62
2023-05-03T00:18:53.085Z,61.29
2023-05-03T00:19:56.407Z,60.81
2023-05-03T00:21:01.424Z,61.56
2023-05-03T00:22:03.924Z,61.70
2023-05-03T00:23:05.726Z,61.50
2023-05-03T00:24:07.354Z,60.92
2023-05-03T00:25:10.105Z,61.71
2023-05-03T00:26:11.638Z,60.95
2023-05-03T00:27:13.169Z,61.08
2023-05-03T00:28:14.673Z,61.51
2023-05-03T00:29:16.516Z,62.64
2023-05-03T00:30:19.306Z,61.88
2023-05-03T00:31:21.080Z,61.91
2023-05-03T00:32:23.180Z,61.89
2023-05-03T00:33:24.854Z,62.21
2023-05-03T00:34:26.367Z,62.77
2023-05-03T00:35:28.228Z,63.37
2023-05-03T00:36:31.058Z,63.74
2023-05-03T00:37:32.768Z,63.19
2023-05-03T00:38:34.267Z,63.39
2023-05-03T00:39:36.278Z,63.74
2023-05-03T00:40:37.881Z,64.47
2023-05-03T00:41:39.601Z,64.49
2023-05-03T00:42:41.216Z,64.89
2023-05-03T00:43:42.860Z,66.07
2023-05-03T00:44:44.599Z,65.83
2023-05-03T00:45:47.575Z,65.83
2023-05-03T00:46:49.851Z,65.98
2023-05-03T00:47:51.598Z,66.59
2023-05-03T00:48:53.555Z,66.61
2023-05-03T00:49:55.159Z,67.19
2023-05-03T00:50:58.586Z,66.63
2023-05-03T00:52:00.163Z,65.89
2023-05-03T00:53:01.770Z,66.21
2023-05-03T00:54:04.028Z,66.65
2023-05-03T00:55:07.567Z,67.04
2023-05-03T00:56:09.718Z,67.62
2023-05-03T00:57:11.946Z,67.72
2023-05-03T00:58:13.558Z,68.35
2023-05-03T00:59:15.300Z,68.41
2023-05-03T01:00:17.898Z,68.66
2023-05-03T01:01:19.644Z,68.79
2023-05-03T01:02:21.816Z,68.92
2023-05-03T01:03:23.991Z,69.47
2023-05-03T01:04:25.843Z,69.46
2023-05-03T01:05:32.510Z,69.18
2023-05-03T01:06:46.114Z,68.83
2023-05-03T01:08:15.530Z,69.80
2023-05-03T01:09:29.579Z,69.72
2023-05-03T01:10:56.015Z,70.01
2023-05-03T01:12:13.017Z,69.93
2023-05-03T01:13:39.400Z,69.61
2023-05-03T01:14:53.167Z,70.07
2023-05-03T01:16:06.538Z,69.88
2023-05-03T01:17:14.208Z,70.58
2023-05-03T01:18:22.123Z,71.06
2023-05-03T01:19:38.958Z,71.21
2023-05-03T01:20:44.270Z,70.77
2023-05-03T01:21:50.364Z,70.88
2023-05-03T01:22:58.046Z,70.41
2023-05-03T01:24:13.831Z,70.02
2023-05-03T01:25:16.251Z,70.07
2023-05-03T01:26:17.758Z,70.09
2023-05-03T01:27:19.381Z,70.52
2023-05-03T01:28:21.312Z,71.14
2023-05-03T01:29:22.855Z,69.72
2023-05-03T01:30:27.628Z,69.64
2023-05-03T01:31:34.906Z,70.11
2023-05-03T01:33:01.444Z,68.74
2023-05-03T01:34:36.684Z,67.41
2023-05-03T01:36:02.607Z,67.29
2023-05-03T01:37:04.786Z,66.30
2023-05-03T01:38:08.246Z,66.56
2023-05-03T01:39:19.654Z,65.79
2023-05-03T01:40:22.740Z,65.57
2023-05-03T01:41:27.007Z,65.23
2023-05-03T01:42:29.844Z,65.93
2023-05-03T01:43:33.353Z,65.11
2023-05-03T01:44:36.650Z,64.49
2023-05-03T01:45:38.384Z,64.55
2023-05-03T01:46:44.876Z,63.41
2023-05-03T01:47:46.467Z,62.69
2023-05-03T01:48:48.264Z,63.33
2023-05-03T01:49:49.962Z,63.88
2023-05-03T01:50:51.524Z,63.60
2023-05-03T01:51:53.052Z,63.78
2023-05-03T01:52:54.597Z,63.17
2023-05-03T01:53:56.474Z,62.67
2023-05-03T01:54:59.518Z,61.49
2023-05-03T01:56:01.045Z,63.00
2023-05-03T01:57:03.109Z,63.21
2023-05-03T01:58:04.725Z,62.22
2023-05-03T01:59:06.381Z,62.54
2023-05-03T02:00:09.308Z,62.73
2023-05-03T02:01:10.957Z,62.59
2023-05-03T02:02:12.621Z,62.91
2023-05-03T02:03:14.309Z,62.96
2023-05-03T02:04:15.884Z,62.62
2023-05-03T02:05:17.529Z,62.67
2023-05-03T02:06:19.251Z,62.73
2023-05-03T02:07:20.952Z,62.37
2023-05-03T02:08:22.476Z,63.24
2023-05-03T02:09:25.082Z,62.65
2023-05-03T02:10:26.772Z,63.29
2023-05-03T02:11:28.388Z,62.43
2023-05-03T02:12:30.034Z,62.52
2023-05-03T02:13:31.544Z,62.56
2023-05-03T02:14:33.141Z,62.43
2023-05-03T02:15:34.731Z,61.57
2023-05-03T02:16:36.469Z,61.41
2023-05-03T02:17:38.955Z,61.67
2023-05-03T02:18:40.518Z,61.56
2023-05-03T02:19:42.125Z,61.73
2023-05-03T02:20:45.774Z,61.83
2023-05-03T02:21:47.307Z,61.43
2023-05-03T02:22:48.851Z,60.21
2023-05-03T02:23:50.521Z,60.91
2023-05-03T02:24:52.232Z,61.84
2023-05-03T02:25:53.747Z,60.99
2023-05-03T02:26:55.754Z,61.35
2023-05-03T02:27:57.311Z,61.23
2023-05-03T02:28:58.875Z,61.87
2023-05-03T02:30:01.417Z,62.06
2023-05-03T02:31:06.242Z,61.39
2023-05-03T02:32:07.901Z,61.13
2023-05-03T02:33:09.735Z,61.74
2023-05-03T02:34:11.843Z,61.70
2023-05-03T02:35:13.426Z,62.08
2023-05-03T02:36:15.028Z,62.21
2023-05-03T02:37:16.906Z,61.95
2023-05-03T02:38:18.721Z,62.37
2023-05-03T02:39:20.299Z,62.47
2023-05-03T02:40:21.971Z,62.47
2023-05-03T02:41:23.580Z,61.93
2023-05-03T02:42:25.167Z,62.26
2023-05-03T02:43:26.849Z,62.45
2023-05-03T02:44:28.808Z,61.93
2023-05-03T02:45:30.371Z,62.19
2023-05-03T02:46:31.979Z,61.68
2023-05-03T02:47:33.680Z,61.38
2023-05-03T02:48:35.612Z,61.20
2023-05-03T02:49:37.256Z,61.62
2023-05-03T02:50:39.874Z,61.19
2023-05-03T02:51:41.589Z,61.10
2023-05-03T02:52:43.193Z,61.09
2023-05-03T02:53:44.765Z,61.43
2023-05-03T02:54:47.252Z,62.05
2023-05-03T02:55:49.793Z,61.53
2023-05-03T02:56:51.470Z,61.64
2023-05-03T02:57:53.000Z,62.61
2023-05-03T02:58:55.146Z,62.62
2023-05-03T02:59:56.720Z,62.50
2023-05-03T03:00:58.272Z,62.38
2023-05-03T03:01:59.993Z,62.89
2023-05-03T03:03:01.871Z,62.71
2023-05-03T03:04:03.771Z,63.00
2023-05-03T03:05:05.663Z,62.91
2023-05-03T03:06:07.415Z,63.29
2023-05-03T03:07:09.020Z,63.34
2023-05-03T03:08:10.641Z,63.17
2023-05-03T03:09:12.656Z,63.02
2023-05-03T03:10:14.227Z,63.40
2023-05-03T03:11:15.872Z,63.08
2023-05-03T03:12:17.697Z,63.11
2023-05-03T03:13:19.257Z,63.73
2023-05-03T03:14:20.895Z,63.56
2023-05-03T03:15:22.443Z,63.56
2023-05-03T03:16:24.009Z,63.37
2023-05-03T03:17:26.185Z,63.30
2023-05-03T03:18:27.712Z,63.01
2023-05-03T03:19:29.284Z,62.99
2023-05-03T03:20:30.836Z,62.71
2023-05-03T03:21:32.679Z,62.43
2023-05-03T03:22:34.196Z,62.37
2023-05-03T03:23:35.764Z,62.79
2023-05-03T03:24:37.416Z,62.81
2023-05-03T03:25:38.931Z,61.49
2023-05-03T03:26:40.638Z,61.72
2023-05-03T03:27:42.188Z,61.99
2023-05-03T03:28:44.788Z,61.19
2023-05-03T03:29:46.832Z,60.05
2023-05-03T03:30:48.459Z,59.89
2023-05-03T03:31:50.006Z,60.35
2023-05-03T03:32:52.878Z,60.02
2023-05-03T03:33:54.517Z,59.38
2023-05-03T03:34:56.187Z,59.50
2023-05-03T03:35:57.709Z,59.73
2023-05-03T03:36:59.226Z,59.93
2023-05-03T03:38:00.728Z,59.89
2023-05-03T03:39:02.277Z,59.83
2023-05-03T03:40:04.484Z,59.96
2023-05-03T03:41:06.330Z,59.74
2023-05-03T03:42:08.964Z,59.86
2023-05-03T03:43:10.510Z,59.02
2023-05-03T03:44:12.054Z,58.96
2023-05-03T03:45:14.765Z,59.01
2023-05-03T03:46:18.509Z,58.13
2023-05-03T03:47:21.137Z,57.05
2023-05-03T03:48:23.793Z,57.12
2023-05-03T03:49:27.134Z,57.11
2023-05-03T03:50:29.065Z,57.24
2023-05-03T03:51:31.611Z,57.84
2023-05-03T03:52:33.219Z,57.58
2023-05-03T03:53:34.940Z,56.53
2023-05-03T03:54:36.815Z,57.75
2023-05-03T03:55:41.566Z,57.54
2023-05-03T03:56:43.560Z,58.12
2023-05-03T03:57:45.142Z,58.98
2023-05-03T03:58:46.694Z,60.21
2023-05-03T03:59:48.236Z,58.41
2023-05-03T04:00:50.083Z,60.50
2023-05-03T04:01:51.807Z,61.44
2023-05-03T04:02:53.487Z,61.81
2023-05-03T04:03:55.193Z,62.77
2023-05-03T04:04:56.835Z,65.81
2023-05-03T04:05:58.404Z,67.28
2023-05-03T04:06:59.952Z,65.61
2023-05-03T04:08:01.613Z,67.07
2023-05-03T04:09:03.163Z,66.94
2023-05-03T04:10:05.605Z,69.71
2023-05-03T04:11:14.296Z,70.03
2023-05-03T04:12:15.845Z,73.02
2023-05-03T04:13:17.394Z,75.97
2023-05-03T04:14:19.056Z,79.36
2023-05-03T04:15:20.672Z,81.07
2023-05-03T04:16:23.192Z,82.99
2023-05-03T04:17:24.813Z,84.01
2023-05-03T04:18:26.837Z,85.28
2023-05-03T04:19:28.532Z,86.31
2023-05-03T04:20:30.078Z,87.10
2023-05-03T04:21:31.657Z,87.95
2023-05-03T04:22:33.827Z,87.91
2023-05-03T04:23:35.683Z,88.70
2023-05-03T04:24:41.854Z,88.71
2023-05-03T04:25:46.653Z,86.83
2023-05-03T04:26:48.246Z,84.51
2023-05-03T04:27:49.794Z,86.01
2023-05-03T04:28:51.938Z,86.55
2023-05-03T04:29:53.733Z,86.09
2023-05-03T04:30:55.378Z,86.36
2023-05-03T04:31:57.323Z,86.73
2023-05-03T04:33:00.700Z,86.91
2023-05-03T04:34:02.389Z,87.15
2023-05-03T04:35:09.509Z,87.26
2023-05-03T04:36:15.290Z,87.43
2023-05-03T04:37:17.758Z,87.47
2023-05-03T04:38:20.105Z,87.85
2023-05-03T04:39:22.376Z,87.52
2023-05-03T04:40:23.956Z,87.38
2023-05-03T04:41:25.730Z,87.36
2023-05-03T04:42:27.369Z,87.87
2023-05-03T04:43:28.904Z,87.84
2023-05-03T04:44:30.447Z,87.90
2023-05-03T04:45:32.087Z,87.72
2023-05-03T04:46:33.858Z,88.79
2023-05-03T04:47:36.582Z,88.55
2023-05-03T04:48:38.302Z,88.94
2023-05-03T04:49:39.971Z,91.15
2023-05-03T04:50:41.548Z,90.44
2023-05-03T04:51:43.188Z,90.82
2023-05-03T04:52:45.125Z,89.76
2023-05-03T04:53:46.644Z,89.55
2023-05-03T04:54:48.247Z,89.30
2023-05-03T04:55:50.825Z,89.50
2023-05-03T04:56:53.866Z,89.50
2023-05-03T04:57:55.899Z,90.63
2023-05-03T04:58:57.680Z,90.35
2023-05-03T04:59:59.189Z,90.78
2023-05-03T05:01:01.039Z,90.83
2023-05-03T05:02:02.774Z,92.32
2023-05-03T05:03:06.397Z,93.42
2023-05-03T05:04:08.443Z,93.34
2023-05-03T05:05:11.197Z,93.11
2023-05-03T05:06:12.980Z,93.01
2023-05-03T05:07:14.730Z,92.14
2023-05-03T05:08:16.542Z,91.51
2023-05-03T05:09:26.023Z,91.12
2023-05-03T05:10:27.582Z,91.21
2023-05-03T05:11:29.161Z,91.12
2023-05-03T05:12:30.820Z,90.95
2023-05-03T05:13:32.449Z,91.15
2023-05-03T05:14:34.012Z,90.57
2023-05-03T05:15:35.812Z,91.24
2023-05-03T05:16:37.570Z,94.09
2023-05-03T05:17:39.355Z,94.85
2023-05-03T05:18:41.118Z,94.38
2023-05-03T05:19:42.626Z,94.32
2023-05-03T05:20:44.178Z,94.45
2023-05-03T05:21:45.880Z,92.72
2023-05-03T05:22:47.453Z,91.51
2023-05-03T05:23:48.956Z,91.16
2023-05-03T05:24:50.497Z,88.25
2023-05-03T05:25:54.015Z,88.53
2023-05-03T05:26:55.921Z,88.41
2023-05-03T05:27:57.463Z,88.39
2023-05-03T05:28:59.100Z,90.39
2023-05-03T05:30:01.258Z,85.72
2023-05-03T05:31:02.917Z,88.88
2023-05-03T05:32:05.430Z,91.17
2023-05-03T05:33:07.101Z,89.76
2023-05-03T05:34:08.754Z,90.04
2023-05-03T05:35:10.384Z,87.62
2023-05-03T05:36:11.941Z,90.20
2023-05-03T05:37:13.462Z,89.54
2023-05-03T05:38:17.516Z,89.08
2023-05-03T05:39:19.108Z,89.28
2023-05-03T05:40:21.231Z,86.56
2023-05-03T05:41:22.919Z,87.21
2023-05-03T05:42:24.702Z,88.06
2023-05-03T05:43:26.320Z,89.21
2023-05-03T05:44:27.940Z,89.84
2023-05-03T05:45:29.549Z,89.89
2023-05-03T05:46:31.277Z,79.23
2023-05-03T05:47:32.932Z,77.76
2023-05-03T05:48:34.604Z,80.04
2023-05-03T05:49:36.372Z,76.20
2023-05-03T05:50:37.904Z,77.78
2023-05-03T05:51:39.513Z,80.37
2023-05-03T05:52:41.411Z,75.82
2023-05-03T05:53:43.365Z,75.59
2023-05-03T05:54:44.968Z,74.85
2023-05-03T05:55:46.524Z,75.24
2023-05-03T05:56:48.354Z,77.17
2023-05-03T05:57:49.934Z,78.94
2023-05-03T05:58:51.664Z,79.65
2023-05-03T05:59:54.190Z,79.42
2023-05-03T06:01:01.327Z,76.38
2023-05-03T06:02:03.120Z,75.92
2023-05-03T06:03:05.259Z,74.99
2023-05-03T06:04:07.067Z,74.82
2023-05-03T06:05:09.415Z,74.16
2023-05-03T06:06:11.186Z,74.10
2023-05-03T06:07:12.822Z,82.25
2023-05-03T06:08:14.363Z,86.49
2023-05-03T06:09:24.112Z,88.76
2023-05-03T06:10:26.562Z,89.91
2023-05-03T06:11:28.147Z,90.45
2023-05-03T06:12:30.427Z,90.20
2023-05-03T06:13:34.294Z,91.36
2023-05-03T06:14:35.895Z,91.53
2023-05-03T06:15:37.655Z,90.99
2023-05-03T06:16:39.333Z,92.07
2023-05-03T06:17:41.006Z,91.77
2023-05-03T06:18:42.733Z,93.00
2023-05-03T06:19:45.137Z,92.20
2023-05-03T06:20:50.601Z,93.48
2023-05-03T06:21:52.445Z,93.94
2023-05-03T06:22:54.002Z,92.70
2023-05-03T06:23:55.677Z,92.13
2023-05-03T06:24:58.037Z,90.60
2023-05-03T06:25:59.728Z,92.72
2023-05-03T06:27:01.319Z,92.03
2023-05-03T06:28:02.931Z,91.48
2023-05-03T06:29:04.513Z,88.76
2023-05-03T06:30:06.773Z,88.65
2023-05-03T06:31:08.539Z,88.28
2023-05-03T06:32:10.573Z,87.99
2023-05-03T06:33:14.583Z,89.26
2023-05-03T06:34:21.625Z,90.64
2023-05-03T06:35:23.777Z,90.80
2023-05-03T06:36:25.762Z,90.75
2023-05-03T06:37:27.372Z,91.20
2023-05-03T06:38:28.917Z,91.77
2023-05-03T06:39:31.173Z,92.88
2023-05-03T06:40:33.402Z,93.28
2023-05-03T06:41:34.964Z,92.98
2023-05-03T06:42:36.636Z,93.31
2023-05-03T06:43:38.249Z,93.73
2023-05-03T06:44:39.769Z,91.93
2023-05-03T06:45:42.938Z,91.03
2023-05-03T06:46:44.602Z,90.34
2023-05-03T06:47:46.402Z,90.26
2023-05-03T06:48:48.019Z,89.65
2023-05-03T06:49:49.654Z,89.58
2023-05-03T06:50:51.288Z,88.33
2023-05-03T06:51:52.922Z,89.90
2023-05-03T06:52:54.825Z,88.77
2023-05-03T06:53:57.595Z,88.16
2023-05-03T06:54:59.294Z,88.44
2023-05-03T06:56:00.864Z,87.49
2023-05-03T06:57:02.545Z,86.17
2023-05-03T06:58:09.995Z,85.31
2023-05-03T06:59:11.518Z,85.11
2023-05-03T07:00:13.725Z,87.69
2023-05-03T07:01:15.793Z,88.34
2023-05-03T07:02:18.787Z,87.09
2023-05-03T07:03:20.930Z,84.67
2023-05-03T07:04:23.290Z,84.27
2023-05-03T07:05:24.862Z,84.97
2023-05-03T07:06:26.646Z,86.77
2023-05-03T07:07:28.293Z,82.14
2023-05-03T07:08:29.850Z,82.15
2023-05-03T07:09:42.129Z,80.04
2023-05-03T07:10:44.965Z,80.35
2023-05-03T07:11:50.365Z,80.66
2023-05-03T07:12:51.933Z,79.45
2023-05-03T07:13:54.678Z,78.69
2023-05-03T07:14:56.299Z,77.34
2023-05-03T07:15:58.185Z,78.76
2023-05-03T07:16:59.810Z,78.79
2023-05-03T07:18:01.473Z,76.40
2023-05-03T07:19:03.277Z,74.81
2023-05-03T07:20:05.414Z,76.68
2023-05-03T07:21:09.231Z,76.02
2023-05-03T07:22:11.975Z,72.95
2023-05-03T07:23:13.522Z,73.54
2023-05-03T07:24:15.330Z,73.30
2023-05-03T07:25:17.926Z,71.68
2023-05-03T07:26:19.645Z,73.81
2023-05-03T07:27:21.442Z,73.90
2023-05-03T07:28:23.454Z,75.47
2023-05-03T07:29:25.136Z,73.07
2023-05-03T07:30:26.912Z,70.92
2023-05-03T07:31:28.620Z,72.39
2023-05-03T07:32:30.241Z,71.28
2023-05-03T07:33:35.750Z,71.17
2023-05-03T07:34:37.309Z,71.54
2023-05-03T07:35:38.847Z,71.09
2023-05-03T07:36:40.512Z,70.13
2023-05-03T07:37:42.577Z,72.12
2023-05-03T07:38:44.157Z,71.62
2023-05-03T07:39:45.777Z,68.84
2023-05-03T07:40:47.284Z,66.20
2023-05-03T07:41:49.135Z,66.32
2023-05-03T07:42:50.893Z,65.66
2023-05-03T07:43:52.487Z,66.27
2023-05-03T07:44:55.694Z,66.14
2023-05-03T07:45:57.293Z,66.61
2023-05-03T07:46:59.127Z,65.29
2023-05-03T07:48:00.802Z,65.34
2023-05-03T07:49:04.470Z,65.85
2023-05-03T07:50:07.178Z,65.27
2023-05-03T07:51:08.734Z,66.48
2023-05-03T07:52:10.347Z,64.41
2023-05-03T07:53:12.528Z,64.14
2023-05-03T07:54:14.111Z,63.26
2023-05-03T07:55:20.544Z,63.59
2023-05-03T07:56:23.986Z,63.93
2023-05-03T07:57:25.607Z,64.47
2023-05-03T07:58:38.913Z,64.38
2023-05-03T07:59:45.003Z,64.94
2023-05-03T08:00:46.505Z,66.41
2023-05-03T08:01:48.112Z,67.59
2023-05-03T08:02:49.864Z,64.79
2023-05-03T08:03:51.846Z,64.31
2023-05-03T08:04:54.884Z,64.81
2023-05-03T08:05:56.751Z,66.91
2023-05-03T08:07:02.513Z,68.12
2023-05-03T08:08:05.581Z,67.82
2023-05-03T08:09:07.252Z,67.11
2023-05-03T08:10:09.452Z,67.89
2023-05-03T08:11:11.878Z,66.65
2023-05-03T08:12:13.408Z,66.96
2023-05-03T08:13:14.984Z,63.50
2023-05-03T08:14:16.747Z,63.15
2023-05-03T08:15:18.318Z,63.66
2023-05-03T08:16:20.134Z,64.74
2023-05-03T08:17:23.158Z,62.80
2023-05-03T08:18:24.906Z,61.69
2023-05-03T08:19:26.770Z,62.74
2023-05-03T08:20:28.414Z,62.54
2023-05-03T08:21:30.355Z,62.69
2023-05-03T08:22:31.909Z,62.05
2023-05-03T08:23:33.483Z,62.14
2023-05-03T08:24:35.172Z,58.92
2023-05-03T08:25:37.320Z,59.14
2023-05-03T08:26:39.077Z,59.02
2023-05-03T08:27:40.711Z,61.29
2023-05-03T08:28:42.638Z,62.42
2023-05-03T08:29:44.213Z,63.05
2023-05-03T08:30:45.971Z,61.14
2023-05-03T08:31:47.668Z,60.22
2023-05-03T08:32:49.464Z,60.34
2023-05-03T08:33:51.756Z,60.24
2023-05-03T08:34:54.676Z,60.72
2023-05-03T08:35:56.307Z,59.90
2023-05-03T08:36:58.133Z,60.63
2023-05-03T08:37:59.653Z,60.79
2023-05-03T08:39:06.392Z,62.36
2023-05-03T08:40:11.939Z,62.45
2023-05-03T08:41:27.214Z,63.24
2023-05-03T08:42:31.900Z,62.89
2023-05-03T08:43:38.787Z,62.96
2023-05-03T08:44:48.524Z,63.96
2023-05-03T08:45:50.103Z,64.71
2023-05-03T08:46:51.764Z,64.27
2023-05-03T08:47:56.590Z,64.29
2023-05-03T08:48:59.989Z,63.80
2023-05-03T08:50:05.022Z,64.16
2023-05-03T08:51:10.133Z,63.88
2023-05-03T08:52:14.339Z,64.18
2023-05-03T08:53:15.912Z,63.60
2023-05-03T08:54:20.637Z,63.44
2023-05-03T08:55:22.313Z,64.02
2023-05-03T08:56:29.475Z,64.02
2023-05-03T08:57:31.859Z,63.91
2023-05-03T08:58:35.817Z,63.95
2023-05-03T08:59:50.817Z,63.57
2023-05-03T09:00:52.473Z,63.44
2023-05-03T09:01:55.143Z,62.31
2023-05-03T09:02:56.916Z,62.43
2023-05-03T09:03:58.633Z,63.96
2023-05-03T09:05:00.964Z,63.57
2023-05-03T09:06:03.513Z,62.89
2023-05-03T09:07:09.753Z,64.77
2023-05-03T09:08:13.578Z,63.65
2023-05-03T09:09:16.092Z,64.65
2023-05-03T09:10:24.556Z,64.45
2023-05-03T09:11:29.376Z,63.92
2023-05-03T09:12:41.007Z,64.42
2023-05-03T09:13:42.618Z,65.55
2023-05-03T09:14:46.094Z,65.21
2023-05-03T09:15:55.366Z,63.87
2023-05-03T09:17:14.483Z,66.07
2023-05-03T09:18:18.749Z,67.49
2023-05-03T09:19:21.628Z,67.65
2023-05-03T09:20:35.492Z,64.85
2023-05-03T09:21:37.997Z,64.41
2023-05-03T09:22:52.221Z,64.26
2023-05-03T09:23:53.962Z,64.71
2023-05-03T09:24:57.666Z,67.23
2023-05-03T09:26:00.466Z,68.53
2023-05-03T09:27:17.501Z,70.26
2023-05-03T09:28:20.393Z,69.11
2023-05-03T09:29:30.164Z,69.27
2023-05-03T09:30:32.113Z,72.50
2023-05-03T09:31:35.089Z,71.26
2023-05-03T09:32:48.280Z,72.59
2023-05-03T09:33:50.157Z,72.22
2023-05-03T09:34:51.792Z,70.51
2023-05-03T09:36:01.336Z,70.88
2023-05-03T09:37:02.996Z,73.76
2023-05-03T09:38:04.809Z,74.37
2023-05-03T09:39:17.123Z,73.12
2023-05-03T09:40:18.875Z,69.76
2023-05-03T09:41:31.264Z,70.72
2023-05-03T09:42:32.974Z,71.32
2023-05-03T09:43:35.998Z,71.48
2023-05-03T09:44:42.568Z,70.64
2023-05-03T09:45:44.227Z,70.45
2023-05-03T09:47:04.608Z,70.33
2023-05-03T09:48:07.537Z,68.84
2023-05-03T09:49:09.259Z,69.03
2023-05-03T09:50:10.967Z,70.13
2023-05-03T09:51:13.020Z,69.73
2023-05-03T09:52:15.102Z,70.77
2023-05-03T09:53:19.591Z,70.45
2023-05-03T09:54:23.689Z,69.64
2023-05-03T09:55:27.814Z,68.48
2023-05-03T09:56:31.150Z,68.56
2023-05-03T09:57:33.410Z,67.77
2023-05-03T09:58:35.891Z,67.49
2023-05-03T09:59:38.775Z,67.00
2023-05-03T10:00:42.651Z,66.20
2023-05-03T10:01:45.018Z,65.07
2023-05-03T10:02:49.309Z,66.04
2023-05-03T10:03:51.930Z,68.20
2023-05-03T10:04:57.200Z,68.06
2023-05-03T10:06:03.944Z,68.41
2023-05-03T10:07:16.629Z,67.70
2023-05-03T10:08:41.266Z,67.06
2023-05-03T10:09:44.716Z,65.88
2023-05-03T10:10:51.925Z,64.61
2023-05-03T10:11:54.673Z,66.27
2023-05-03T10:12:56.447Z,65.89
2023-05-03T10:13:58.215Z,65.18
2023-05-03T10:15:01.311Z,64.46
2023-05-03T10:16:11.985Z,63.62
2023-05-03T10:17:16.449Z,62.54
2023-05-03T10:18:20.974Z,62.38
2023-05-03T10:19:41.759Z,62.82
2023-05-03T10:20:54.879Z,62.83
2023-05-03T10:22:04.291Z,63.62
2023-05-03T10:23:06.186Z,63.51
2023-05-03T10:24:11.859Z,64.66
2023-05-03T10:25:14.133Z,66.14
2023-05-03T10:26:17.485Z,65.15
2023-05-03T10:27:19.450Z,63.71
2023-05-03T10:28:21.236Z,65.04
2023-05-03T10:29:35.055Z,65.47
2023-05-03T10:30:40.655Z,64.90
2023-05-03T10:31:47.432Z,64.32
2023-05-03T10:32:49.371Z,65.92
2023-05-03T10:33:51.244Z,65.49
2023-05-03T10:35:03.676Z,65.34
2023-05-03T10:36:07.723Z,65.85
2023-05-03T10:37:11.523Z,64.11
2023-05-03T10:38:24.504Z,64.15
2023-05-03T10:39:27.874Z,65.86
2023-05-03T10:40:43.041Z,65.52
2023-05-03T10:41:45.525Z,64.88
2023-05-03T10:42:55.376Z,65.06
2023-05-03T10:43:57.789Z,65.68
2023-05-03T10:45:01.897Z,67.67
2023-05-03T10:46:08.887Z,65.51
2023-05-03T10:47:17.155Z,65.98
2023-05-03T10:48:20.970Z,67.17
2023-05-03T10:49:24.196Z,66.75
2023-05-03T10:50:26.384Z,67.72
2023-05-03T10:51:29.029Z,67.24
2023-05-03T10:52:36.435Z,67.20
2023-05-03T10:53:42.741Z,67.00
2023-05-03T10:54:44.295Z,68.30
2023-05-03T10:56:08.072Z,69.23
2023-05-03T10:57:10.588Z,68.10
2023-05-03T10:58:16.708Z,66.91
2023-05-03T10:59:18.414Z,65.95
2023-05-03T11:00:51.407Z,68.42
2023-05-03T11:01:53.450Z,67.73
2023-05-03T11:03:35.943Z,67.27
2023-05-03T11:04:44.762Z,63.90
2023-05-03T11:05:48.554Z,64.03
2023-05-03T11:06:52.069Z,63.16
2023-05-03T11:08:07.308Z,63.00
2023-05-03T11:09:10.458Z,62.08
2023-05-03T11:10:19.105Z,61.48
2023-05-03T11:11:21.632Z,61.45
2023-05-03T11:12:23.351Z,60.32
2023-05-03T11:13:24.944Z,60.29
2023-05-03T11:14:26.614Z,60.54
2023-05-03T11:15:28.289Z,59.97
2023-05-03T11:16:31.108Z,61.73
2023-05-03T11:17:32.936Z,60.45
2023-05-03T11:18:34.697Z,59.95
2023-05-03T11:19:36.349Z,59.98
2023-05-03T11:20:38.351Z,61.10
2023-05-03T11:21:40.552Z,61.20
2023-05-03T11:22:42.210Z,62.15
2023-05-03T11:23:44.569Z,62.01
2023-05-03T11:24:47.149Z,59.79
2023-05-03T11:25:48.675Z,57.91
2023-05-03T11:26:50.504Z,59.11
2023-05-03T11:27:52.202Z,59.94
2023-05-03T11:28:54.343Z,59.98
2023-05-03T11:29:58.601Z,58.55
2023-05-03T11:31:02.140Z,59.29
2023-05-03T11:32:03.848Z,57.69
2023-05-03T11:33:06.888Z,59.58
2023-05-03T11:34:10.310Z,60.85
2023-05-03T11:35:17.661Z,60.33
2023-05-03T11:36:20.253Z,60.33
2023-05-03T11:37:22.350Z,60.10
2023-05-03T11:38:23.928Z,61.39
2023-05-03T11:39:25.905Z,62.28
2023-05-03T11:40:27.827Z,62.94
2023-05-03T11:41:29.395Z,62.83
2023-05-03T11:42:31.109Z,63.11
2023-05-03T11:43:32.682Z,64.13
2023-05-03T11:44:34.601Z,62.08
2023-05-03T11:45:44.158Z,61.62
2023-05-03T11:46:47.796Z,62.65
2023-05-03T11:47:49.900Z,61.97
2023-05-03T11:48:51.564Z,62.67
2023-05-03T11:49:54.120Z,62.54
2023-05-03T11:50:56.094Z,62.45
2023-05-03T11:51:58.145Z,62.09
2023-05-03T11:52:59.892Z,63.38
2023-05-03T11:54:12.814Z,62.49
2023-05-03T11:55:23.957Z,62.28
2023-05-03T11:56:25.671Z,62.11
2023-05-03T11:57:27.441Z,61.89
2023-05-03T11:58:28.995Z,61.97
2023-05-03T11:59:40.203Z,61.86
2023-05-03T12:00:47.151Z,62.15
2023-05-03T12:01:49.594Z,62.81
2023-05-03T12:02:51.870Z,64.08
2023-05-03T12:03:59.420Z,64.63
2023-05-03T12:05:02.359Z,63.85
2023-05-03T12:06:06.565Z,64.63
2023-05-03T12:07:10.698Z,64.12
2023-05-03T12:08:15.007Z,64.63
2023-05-03T12:09:18.198Z,64.83
2023-05-03T12:10:25.739Z,66.05
2023-05-03T12:11:30.522Z,66.32
2023-05-03T12:13:39.779Z,68.83
2023-05-03T12:15:11.268Z,73.63
2023-05-03T12:16:15.690Z,75.96
2023-05-03T12:17:42.859Z,78.34
2023-05-03T12:18:52.388Z,82.65
2023-05-03T12:20:51.329Z,85.19
2023-05-03T12:21:59.300Z,88.89
2023-05-03T12:23:10.518Z,89.77
2023-05-03T12:24:14.852Z,91.63
2023-05-03T12:25:19.176Z,90.21
2023-05-03T12:26:22.387Z,92.33
2023-05-03T12:27:24.168Z,90.83
2023-05-03T12:28:26.056Z,92.65
2023-05-03T12:29:29.492Z,93.11
2023-05-03T12:30:33.847Z,95.35
2023-05-03T12:31:39.269Z,93.66
2023-05-03T12:32:44.034Z,94.55
2023-05-03T12:34:01.937Z,95.21
2023-05-03T12:35:14.172Z,96.55
2023-05-03T12:36:16.916Z,90.31
2023-05-03T12:37:21.984Z,94.52
2023-05-03T12:38:25.072Z,95.04
2023-05-03T12:39:27.623Z,90.20
2023-05-03T12:40:34.220Z,92.64
2023-05-03T12:42:43.384Z,94.73
2023-05-03T12:43:45.917Z,93.62
2023-05-03T12:44:48.347Z,89.49
2023-05-03T12:46:00.146Z,87.24
2023-05-03T12:47:11.723Z,83.38
2023-05-03T12:48:17.734Z,86.07
2023-05-03T12:49:21.417Z,87.68
2023-05-03T12:50:25.242Z,87.37
2023-05-03T12:51:32.813Z,87.15
2023-05-03T12:52:38.007Z,86.91
2023-05-03T12:53:41.051Z,85.40
2023-05-03T12:54:42.896Z,86.13
2023-05-03T12:55:45.286Z,84.55
2023-05-03T12:56:54.792Z,85.12
2023-05-03T12:58:18.146Z,85.01
2023-05-03T12:59:40.286Z,86.22
2023-05-03T13:00:48.586Z,87.11
2023-05-03T13:05:33.207Z,91.50
2023-05-03T13:06:42.135Z,91.35
2023-05-03T13:07:45.004Z,91.50
2023-05-03T13:08:50.091Z,92.21
2023-05-03T13:10:56.735Z,88.90
2023-05-03T13:11:59.712Z,90.23
2023-05-03T13:13:01.721Z,89.70
2023-05-03T13:14:03.769Z,89.07
2023-05-03T13:15:06.526Z,88.13
2023-05-03T13:16:09.206Z,88.64
2023-05-03T13:17:12.043Z,88.63
2023-05-03T13:18:14.911Z,88.10
2023-05-03T13:19:16.816Z,87.66
2023-05-03T13:20:20.327Z,86.60
2023-05-03T13:21:22.486Z,87.27
2023-05-03T13:22:24.211Z,87.87
2023-05-03T13:23:25.787Z,87.56
2023-05-03T13:24:27.337Z,87.71
2023-05-03T13:25:28.901Z,89.57
2023-05-03T13:26:30.453Z,88.97
2023-05-03T13:27:32.078Z,91.39
2023-05-03T13:28:33.661Z,88.30
2023-05-03T13:29:35.517Z,89.08
2023-05-03T13:30:37.130Z,87.29
2023-05-03T13:31:38.719Z,88.12
2023-05-03T13:32:40.614Z,87.39
2023-05-03T13:33:42.178Z,88.28
2023-05-03T13:34:43.693Z,88.57
2023-05-03T13:35:47.605Z,88.16
2023-05-03T13:36:50.061Z,89.28
2023-05-03T13:37:52.767Z,89.20
2023-05-03T13:38:54.317Z,90.13
2023-05-03T13:39:56.552Z,90.25
2023-05-03T13:40:58.108Z,91.48
2023-05-03T13:41:59.666Z,92.15
2023-05-03T13:43:01.242Z,92.66
2023-05-03T13:44:02.835Z,93.78
2023-05-03T13:45:04.859Z,92.16
2023-05-03T13:46:06.584Z,92.13
2023-05-03T13:47:08.220Z,91.37